Time;durP1;ratioP1;P1;durP2;ratioP2;P2;SDS_P1;SDS_P2;PMS_P1;PMS_P2;Temp;Humidity;BMP_temperature;BMP_pressure;BME280_temperature;BME280_humidity;BME280_pressure;Samples;Min_cycle;Max_cycle;Signal;HPM_P1;HPM_P2
2023/06/02 00:02:07;;;;;;;;;;;;;;;23.58;45.52;100653.59;103455;1291;61477;-82
2023/06/02 00:04:32;;;;;;;;;;;;;;;23.57;45.57;100651.28;103525;1286;61403;-82
2023/06/02 00:07:03;;;;;;;;;;;;;;;23.57;45.58;100653.27;103435;1292;61377;-82
2023/06/02 00:09:29;;;;;;;;;;;;;;;23.57;45.54;100653.47;103445;1286;72475;-82
2023/06/02 00:11:54;;;;;;;;;;;;;;;23.57;45.63;100653.45;103453;1291;61412;-82
2023/06/02 00:14:21;;;;;;;;;;;;;;;23.57;45.58;100649.70;103622;1286;61468;-82
2023/06/02 00:16:50;;;;;;;;;;;;;;;23.57;45.60;100645.41;103450;1286;61400;-82
2023/06/02 00:19:18;;;;;;;;;;;;;;;23.56;45.55;100643.99;103428;1292;72585;-82
2023/06/02 00:21:47;;;;;;;;;;;;;;;23.56;45.61;100645.11;103398;1291;65733;-83
2023/06/02 00:24:13;;;;;;;;;;;;;;;23.56;45.68;100643.29;103364;1289;62625;-83
2023/06/02 00:26:38;;;;;;;;;;;;;;;23.56;45.60;100637.73;103422;1286;62446;-82
2023/06/02 00:29:04;;;;;;;;;;;;;;;23.56;45.62;100639.20;103325;1291;61407;-82
2023/06/02 00:31:30;;;;;;;;;;;;;;;23.56;45.68;100637.76;103539;1286;61434;-83
2023/06/02 00:33:55;;;;;;;;;;;;;;;23.55;45.60;100637.44;103524;1286;61377;-83
2023/06/02 00:36:21;;;;;;;;;;;;;;;23.56;45.68;100637.78;103503;1290;61394;-82
2023/06/02 00:38:46;;;;;;;;;;;;;;;23.56;45.65;100637.23;103504;1286;61378;-82
2023/06/02 00:41:12;;;;;;;;;;;;;;;23.56;45.66;100634.20;103576;1291;61449;-82
2023/06/02 00:43:38;;;;;;;;;;;;;;;23.56;45.58;100632.56;103493;1286;62581;-82
2023/06/02 00:46:03;;;;;;;;;;;;;;;23.55;45.57;100632.95;103486;1286;61436;-82
2023/06/02 00:48:29;;;;;;;;;;;;;;;23.55;45.55;100632.63;103626;1286;61361;-82
2023/06/02 00:50:55;;;;;;;;;;;;;;;23.55;45.58;100627.05;103518;1286;61368;-82
2023/06/02 00:53:20;;;;;;;;;;;;;;;23.55;45.65;100621.30;103503;1286;61455;-82
2023/06/02 00:55:46;;;;;;;;;;;;;;;23.54;45.69;100623.16;103505;1286;61394;-82
2023/06/02 00:58:13;;;;;;;;;;;;;;;23.55;45.74;100623.85;103653;1286;62148;-82
2023/06/02 01:00:41;;;;;;;;;;;;;;;23.55;45.68;100624.04;103524;1286;61570;-83
2023/06/02 01:03:07;;;;;;;;;;;;;;;23.55;45.85;100623.66;103457;1292;61410;-82
2023/06/02 01:05:33;;;;;;;;;;;;;;;23.55;45.64;100623.86;103516;1291;61410;-82
2023/06/02 01:08:00;;;;;;;;;;;;;;;23.54;45.70;100622.10;103566;1286;61349;-82
2023/06/02 01:10:26;;;;;;;;;;;;;;;23.55;45.66;100623.33;103506;1286;62598;-82
2023/06/02 01:12:51;;;;;;;;;;;;;;;23.54;45.73;100620.83;103474;1286;61482;-82
2023/06/02 01:15:17;;;;;;;;;;;;;;;23.55;45.78;100620.63;103461;1292;61564;-82
2023/06/02 01:17:46;;;;;;;;;;;;;;;23.54;45.71;100619.93;103589;1286;61423;-83
2023/06/02 01:20:12;;;;;;;;;;;;;;;23.54;45.80;100620.49;103521;1286;61316;-83
2023/06/02 01:22:45;;;;;;;;;;;;;;;23.54;45.78;100614.42;103623;1286;61419;-83
2023/06/02 01:25:17;;;;;;;;;;;;;;;23.54;45.68;100616.05;103495;1289;72383;-81
2023/06/02 01:27:43;;;;;;;;;;;;;;;23.53;45.75;100614.45;103520;1286;74444;-83
2023/06/02 01:30:08;;;;;;;;;;;;;;;23.54;45.76;100611.02;103632;1286;61436;-82
2023/06/02 01:32:35;;;;;;;;;;;;;;;23.54;45.78;100605.27;103462;1286;61441;-82
2023/06/02 01:35:04;;;;;;;;;;;;;;;23.54;45.61;100606.34;103514;1286;62031;-82
2023/06/02 01:37:30;;;;;;;;;;;;;;;23.53;45.72;100603.84;103509;1286;65979;-82
2023/06/02 01:39:56;;;;;;;;;;;;;;;23.53;45.71;100597.97;103482;1286;61726;-82
2023/06/02 01:42:23;;;;;;;;;;;;;;;23.53;45.62;100598.67;103463;1287;61877;-83
2023/06/02 01:44:49;;;;;;;;;;;;;;;23.53;45.79;100596.33;103315;1291;61342;-82
2023/06/02 01:47:14;;;;;;;;;;;;;;;23.52;45.68;100589.40;103551;1286;61807;-82
2023/06/02 01:49:40;;;;;;;;;;;;;;;23.52;45.65;100589.91;103530;1286;61409;-82
2023/06/02 01:52:06;;;;;;;;;;;;;;;23.52;45.70;100585.61;103490;1292;61291;-82
2023/06/02 01:54:31;;;;;;;;;;;;;;;23.52;45.73;100587.42;103690;1286;62646;-82
2023/06/02 01:56:57;;;;;;;;;;;;;;;23.52;45.75;100590.50;103492;1291;62463;-82
2023/06/02 01:59:22;;;;;;;;;;;;;;;23.52;45.71;100593.04;103515;1284;61401;-83
2023/06/02 02:01:48;;;;;;;;;;;;;;;23.52;45.87;100596.83;103510;1286;61324;-83
2023/06/02 02:04:14;;;;;;;;;;;;;;;23.51;45.95;100604.20;103547;1292;61390;-82
2023/06/02 02:06:40;;;;;;;;;;;;;;;23.51;45.81;100608.53;103527;1289;61195;-82
2023/06/02 02:09:07;;;;;;;;;;;;;;;23.52;45.82;100604.73;103412;1286;62386;-82
2023/06/02 02:11:33;;;;;;;;;;;;;;;23.52;45.83;100611.01;103468;1286;74393;-82
2023/06/02 02:14:04;;;;;;;;;;;;;;;23.51;45.63;100613.92;103594;1287;61442;-82
2023/06/02 02:16:30;;;;;;;;;;;;;;;23.52;45.84;100613.16;103490;1288;61333;-83
2023/06/02 02:18:56;;;;;;;;;;;;;;;23.51;45.78;100614.31;103468;1286;61441;-83
2023/06/02 02:21:22;;;;;;;;;;;;;;;23.51;45.88;100612.87;103496;1286;61451;-82
2023/06/02 02:23:47;;;;;;;;;;;;;;;23.51;45.81;100613.23;103479;1286;62411;-82
2023/06/02 02:26:13;;;;;;;;;;;;;;;23.51;45.85;100609.45;103601;1286;61272;-82
2023/06/02 02:28:40;;;;;;;;;;;;;;;23.51;45.91;100607.67;103505;1286;62550;-82
2023/06/02 02:31:05;;;;;;;;;;;;;;;23.51;45.75;100610.00;103647;1286;61356;-82
2023/06/02 02:33:31;;;;;;;;;;;;;;;23.51;45.76;100607.50;103646;1286;62605;-81
2023/06/02 02:35:56;;;;;;;;;;;;;;;23.51;45.83;100607.14;103518;1286;62491;-81
2023/06/02 02:38:22;;;;;;;;;;;;;;;23.50;45.93;100606.29;103463;1292;61381;-82
2023/06/02 02:40:47;;;;;;;;;;;;;;;23.50;45.89;100602.00;103616;1286;62530;-83
2023/06/02 02:43:17;;;;;;;;;;;;;;;23.50;45.91;100603.77;103494;1291;62463;-82
2023/06/02 02:45:44;;;;;;;;;;;;;;;23.50;45.89;100605.61;103575;1285;61326;-83
2023/06/02 02:48:10;;;;;;;;;;;;;;;23.50;45.87;100608.30;103532;1286;61348;-83
2023/06/02 02:50:35;;;;;;;;;;;;;;;23.50;45.89;100608.06;103562;1292;61454;-82
2023/06/02 02:53:02;;;;;;;;;;;;;;;23.50;45.93;100604.35;103515;1286;61387;-82
2023/06/02 02:55:28;;;;;;;;;;;;;;;23.49;45.84;100601.69;103566;1286;61387;-83
2023/06/02 02:57:54;;;;;;;;;;;;;;;23.50;45.77;100602.71;103569;1286;61374;-83
2023/06/02 03:00:20;;;;;;;;;;;;;;;23.50;46.07;100601.46;103527;1286;62735;-83
2023/06/02 03:02:46;;;;;;;;;;;;;;;23.50;45.86;100603.28;103500;1286;61298;-83
2023/06/02 03:05:13;;;;;;;;;;;;;;;23.50;45.82;100604.36;103519;1292;61390;-82
2023/06/02 03:07:44;;;;;;;;;;;;;;;23.50;45.97;100604.18;103566;1288;61256;-82
2023/06/02 03:10:10;;;;;;;;;;;;;;;23.50;46.02;100602.73;103468;1286;61418;-82
2023/06/02 03:12:35;;;;;;;;;;;;;;;23.50;45.86;100599.88;103537;1292;61726;-82
2023/06/02 03:15:01;;;;;;;;;;;;;;;23.50;45.90;100603.05;103563;1291;61384;-82
2023/06/02 03:17:27;;;;;;;;;;;;;;;23.50;45.88;100602.92;103520;1286;61923;-82
2023/06/02 03:19:54;;;;;;;;;;;;;;;23.50;46.06;100610.82;103698;1286;61316;-82
2023/06/02 03:22:21;;;;;;;;;;;;;;;23.50;46.01;100612.27;103585;1291;62500;-83
2023/06/02 03:24:46;;;;;;;;;;;;;;;23.50;46.06;100607.42;103430;1290;61451;-83
2023/06/02 03:27:15;;;;;;;;;;;;;;;23.50;46.10;100609.88;103506;1286;61225;-83
2023/06/02 03:29:42;;;;;;;;;;;;;;;23.50;45.89;100603.98;103512;1286;62542;-83
2023/06/02 03:32:11;;;;;;;;;;;;;;;23.50;45.86;100601.27;103479;1292;61285;-83
2023/06/02 03:34:39;;;;;;;;;;;;;;;23.50;46.02;100597.52;103590;1286;75353;-83
